createdAt,value
2018-03-15T00:00:38.667Z,15.10
2018-03-15T00:01:38.744Z,15.30
2018-03-15T00:02:38.726Z,16.90
2018-03-15T00:03:38.771Z,16.10
2018-03-15T00:04:38.787Z,17.50
2018-03-15T00:05:38.817Z,17.50
2018-03-15T00:06:38.851Z,16.40
2018-03-15T00:07:38.876Z,14.80
2018-03-15T00:08:38.908Z,16.80
2018-03-15T00:09:38.940Z,18.40
2018-03-15T00:10:38.968Z,16.50
2018-03-15T00:11:38.998Z,16.70
2018-03-15T00:12:39.027Z,16.40
2018-03-15T00:13:39.166Z,18.70
2018-03-15T00:14:39.089Z,18.60
2018-03-15T00:15:39.120Z,20.50
2018-03-15T00:16:39.153Z,17.90
2018-03-15T00:17:39.184Z,18.10
2018-03-15T00:18:39.219Z,19.30
2018-03-15T00:19:39.241Z,19.30
2018-03-15T00:20:39.271Z,20.30
2018-03-15T00:21:39.304Z,19.30
2018-03-15T00:22:39.337Z,18.70
2018-03-15T00:23:39.364Z,19.20
2018-03-15T00:24:39.394Z,19.10
2018-03-15T00:25:39.426Z,20.00
2018-03-15T00:26:39.453Z,19.90
2018-03-15T00:27:39.481Z,20.30
2018-03-15T00:28:39.513Z,19.60
2018-03-15T00:29:39.544Z,18.50
2018-03-15T00:30:39.579Z,19.20
2018-03-15T00:31:39.606Z,19.60
2018-03-15T00:32:39.634Z,18.90
2018-03-15T00:33:39.664Z,20.30
2018-03-15T00:34:39.695Z,19.50
2018-03-15T00:35:39.725Z,19.50
2018-03-15T00:36:39.761Z,20.70
2018-03-15T00:37:39.800Z,19.90
2018-03-15T00:38:39.824Z,21.30
2018-03-15T00:39:39.914Z,22.90
2018-03-15T00:40:39.877Z,20.80
2018-03-15T00:41:39.911Z,21.10
2018-03-15T00:42:39.937Z,22.30
2018-03-15T00:43:39.974Z,21.60
2018-03-15T00:44:40.001Z,21.30
2018-03-15T00:45:40.045Z,22.40
2018-03-15T00:46:40.062Z,22.60
2018-03-15T00:47:40.093Z,23.80
2018-03-15T00:48:40.118Z,22.30
2018-03-15T00:49:40.147Z,24.70
2018-03-15T00:50:40.186Z,22.20
2018-03-15T00:51:40.213Z,21.30
2018-03-15T00:52:40.242Z,20.50
2018-03-15T00:53:40.275Z,20.90
2018-03-15T00:54:40.306Z,23.30
2018-03-15T00:55:40.332Z,24.90
2018-03-15T00:56:40.363Z,22.00
2018-03-15T00:57:40.393Z,24.50
2018-03-15T00:58:40.429Z,24.90
2018-03-15T00:59:40.447Z,24.20
2018-03-15T01:00:40.479Z,21.90
2018-03-15T01:01:40.513Z,24.90
2018-03-15T01:02:40.543Z,21.50
2018-03-15T01:03:40.567Z,21.90
2018-03-15T01:04:40.598Z,21.90
2018-03-15T01:05:40.639Z,21.10
2018-03-15T01:06:40.672Z,21.30
2018-03-15T01:07:40.689Z,19.90
2018-03-15T01:08:40.719Z,21.40
2018-03-15T01:09:40.755Z,25.00
2018-03-15T01:10:40.778Z,25.20
2018-03-15T01:11:40.808Z,28.20
2018-03-15T01:12:40.840Z,25.80
2018-03-15T01:13:40.918Z,23.20
2018-03-15T01:14:40.900Z,24.10
2018-03-15T01:15:40.930Z,24.30
2018-03-15T01:16:40.959Z,24.60
2018-03-15T01:17:40.990Z,24.40
2018-03-15T01:18:41.046Z,23.30
2018-03-15T01:19:41.061Z,23.60
2018-03-15T01:20:41.090Z,22.60
2018-03-15T01:21:41.109Z,22.50
2018-03-15T01:22:41.140Z,24.70
2018-03-15T01:23:41.168Z,23.40
2018-03-15T01:24:41.205Z,25.10
2018-03-15T01:25:41.228Z,23.40
2018-03-15T01:26:41.260Z,24.80
2018-03-15T01:27:41.288Z,23.80
2018-03-15T01:28:41.318Z,23.30
2018-03-15T01:29:41.347Z,24.10
2018-03-15T01:30:41.407Z,24.80
2018-03-15T01:31:41.407Z,22.00
2018-03-15T01:32:41.437Z,24.50
2018-03-15T01:33:41.470Z,24.20
2018-03-15T01:34:41.508Z,23.80
2018-03-15T01:35:41.529Z,22.00
2018-03-15T01:36:41.558Z,22.90
2018-03-15T01:37:41.646Z,24.90
2018-03-15T01:38:41.617Z,23.50
2018-03-15T01:39:41.647Z,23.60
2018-03-15T01:40:41.677Z,25.00
2018-03-15T01:41:41.707Z,25.40
2018-03-15T01:42:41.738Z,23.40
2018-03-15T01:43:41.768Z,24.50
2018-03-15T01:44:41.800Z,23.50
2018-03-15T01:45:41.828Z,24.30
2018-03-15T01:46:41.858Z,22.80
2018-03-15T01:47:41.887Z,24.20
2018-03-15T01:48:41.913Z,26.20
2018-03-15T01:49:41.943Z,26.30
2018-03-15T01:50:41.974Z,24.50
2018-03-15T01:51:42.001Z,26.60
2018-03-15T01:52:42.033Z,24.80
2018-03-15T01:53:42.063Z,25.00
2018-03-15T01:54:42.092Z,26.00
2018-03-15T01:55:42.123Z,24.30
2018-03-15T01:56:42.174Z,24.50
2018-03-15T01:57:42.184Z,22.90
2018-03-15T01:58:42.214Z,24.60
2018-03-15T01:59:42.242Z,24.10
2018-03-15T02:00:42.273Z,24.50
2018-03-15T02:01:42.300Z,23.80
2018-03-15T02:02:42.333Z,23.20
2018-03-15T02:03:42.360Z,25.30
2018-03-15T02:04:42.389Z,26.60
2018-03-15T02:05:42.420Z,29.00
2018-03-15T02:06:42.449Z,28.80
2018-03-15T02:07:42.479Z,27.30
2018-03-15T02:08:42.509Z,24.60
2018-03-15T02:09:42.541Z,26.00
2018-03-15T02:10:42.589Z,28.20
2018-03-15T02:11:42.595Z,26.60
2018-03-15T02:12:42.623Z,25.10
2018-03-15T02:13:42.663Z,26.20
2018-03-15T02:14:42.685Z,25.40
2018-03-15T02:15:42.710Z,24.60
2018-03-15T02:16:42.804Z,27.40
2018-03-15T02:17:42.775Z,30.50
2018-03-15T02:18:42.800Z,31.00
2018-03-15T02:19:42.835Z,30.20
2018-03-15T02:20:42.858Z,27.30
2018-03-15T02:21:42.892Z,28.70
2018-03-15T02:22:42.921Z,34.40
2018-03-15T02:23:42.958Z,28.90
2018-03-15T02:24:42.978Z,32.60
2018-03-15T02:25:43.008Z,31.60
2018-03-15T02:26:43.041Z,32.10
2018-03-15T02:27:43.065Z,31.30
2018-03-15T02:28:43.094Z,32.40
2018-03-15T02:29:43.124Z,30.20
2018-03-15T02:30:43.159Z,30.60
2018-03-15T02:31:43.185Z,32.30
2018-03-15T02:32:43.215Z,35.00
2018-03-15T02:33:43.245Z,30.50
2018-03-15T02:34:43.272Z,32.60
2018-03-15T02:35:43.303Z,34.40
2018-03-15T02:36:43.332Z,31.80
2018-03-15T02:37:43.371Z,33.50
2018-03-15T02:38:43.394Z,35.90
2018-03-15T02:39:43.424Z,31.80
2018-03-15T02:40:43.449Z,31.40
2018-03-15T02:41:43.481Z,34.00
2018-03-15T02:42:43.509Z,35.60
2018-03-15T02:43:43.536Z,31.90
2018-03-15T02:44:43.567Z,35.30
2018-03-15T02:45:43.597Z,31.60
2018-03-15T02:46:43.628Z,32.60
2018-03-15T02:47:43.657Z,28.90
2018-03-15T02:48:43.684Z,27.20
2018-03-15T02:49:43.790Z,31.10
2018-03-15T02:50:43.745Z,29.60
2018-03-15T02:51:43.776Z,34.00
2018-03-15T02:52:43.807Z,32.60
2018-03-15T02:53:43.835Z,33.80
2018-03-15T02:54:43.867Z,33.50
2018-03-15T02:55:43.890Z,31.70
2018-03-15T02:56:43.922Z,34.20
2018-03-15T02:57:43.949Z,32.10
2018-03-15T02:58:43.987Z,30.70
2018-03-15T02:59:44.047Z,35.30
2018-03-15T03:00:44.051Z,32.70
2018-03-15T03:01:44.068Z,34.70
2018-03-15T03:02:44.108Z,34.40
2018-03-15T03:03:44.129Z,32.60
2018-03-15T03:04:44.157Z,33.30
2018-03-15T03:05:44.205Z,33.30
2018-03-15T03:06:44.307Z,29.90
2018-03-15T03:07:44.247Z,29.90
2018-03-15T03:08:44.272Z,33.40
2018-03-15T03:09:44.310Z,33.90
2018-03-15T03:10:44.331Z,32.20
2018-03-15T03:11:44.362Z,32.80
2018-03-15T03:12:44.389Z,31.80
2018-03-15T03:13:44.422Z,29.90
2018-03-15T03:14:44.451Z,28.40
2018-03-15T03:15:44.477Z,32.00
2018-03-15T03:16:44.508Z,30.20
2018-03-15T03:17:44.538Z,31.80
2018-03-15T03:18:44.568Z,30.90
2018-03-15T03:19:44.598Z,31.00
2018-03-15T03:20:44.629Z,34.60
2018-03-15T03:21:44.658Z,33.10
2018-03-15T03:22:44.683Z,32.30
2018-03-15T03:23:44.819Z,33.20
2018-03-15T03:24:44.751Z,33.10
2018-03-15T03:25:44.774Z,34.00
2018-03-15T03:26:44.802Z,31.20
2018-03-15T03:27:44.852Z,34.20
2018-03-15T03:28:44.862Z,35.60
2018-03-15T03:29:44.889Z,33.30
2018-03-15T03:30:44.942Z,33.60
2018-03-15T03:31:44.949Z,33.00
2018-03-15T03:32:44.982Z,34.90
2018-03-15T03:33:45.010Z,35.80
2018-03-15T03:34:45.040Z,35.40
2018-03-15T03:35:45.066Z,34.30
2018-03-15T03:36:45.095Z,34.30
2018-03-15T03:37:45.124Z,37.20
2018-03-15T03:38:45.155Z,38.70
2018-03-15T03:39:45.188Z,38.80
2018-03-15T03:40:45.214Z,42.10
2018-03-15T03:41:45.243Z,33.90
2018-03-15T03:42:45.350Z,43.30
2018-03-15T03:43:45.300Z,41.20
2018-03-15T03:44:45.331Z,42.50
2018-03-15T03:45:45.370Z,39.50
2018-03-15T03:46:45.390Z,39.80
2018-03-15T03:47:45.416Z,42.40
2018-03-15T03:48:45.446Z,41.50
2018-03-15T03:49:45.476Z,42.60
2018-03-15T03:50:45.506Z,49.70
2018-03-15T03:51:45.533Z,41.80
2018-03-15T03:52:45.564Z,45.30
2018-03-15T03:53:45.595Z,40.50
2018-03-15T03:54:45.622Z,42.70
2018-03-15T03:55:45.654Z,41.00
2018-03-15T03:56:45.682Z,38.60
2018-03-15T03:57:45.712Z,42.80
2018-03-15T03:58:45.741Z,40.60
2018-03-15T03:59:45.785Z,41.50
2018-03-15T04:00:45.799Z,39.20
2018-03-15T04:01:45.825Z,37.50
2018-03-15T04:02:45.855Z,40.10
2018-03-15T04:03:45.893Z,38.10
2018-03-15T04:04:45.914Z,35.80
2018-03-15T04:05:45.941Z,40.70
2018-03-15T04:06:46.063Z,37.70
2018-03-15T04:07:46.003Z,38.10
2018-03-15T04:08:46.033Z,42.70
2018-03-15T04:09:46.063Z,39.70
2018-03-15T04:10:46.093Z,38.00
2018-03-15T04:11:46.120Z,41.20
2018-03-15T04:12:46.149Z,36.90
2018-03-15T04:13:46.179Z,38.10
2018-03-15T04:14:46.206Z,40.30
2018-03-15T04:15:46.253Z,37.70
2018-03-15T04:16:46.268Z,36.00
2018-03-15T04:17:46.296Z,35.50
2018-03-15T04:18:46.324Z,33.80
2018-03-15T04:19:46.354Z,35.10
2018-03-15T04:20:46.385Z,33.90
2018-03-15T04:21:46.415Z,35.80
2018-03-15T04:22:46.449Z,36.20
2018-03-15T04:23:46.505Z,34.90
2018-03-15T04:24:46.499Z,33.50
2018-03-15T04:25:46.537Z,32.70
2018-03-15T04:26:46.557Z,34.20
2018-03-15T04:27:46.588Z,35.10
2018-03-15T04:28:46.622Z,36.70
2018-03-15T04:29:46.647Z,33.20
2018-03-15T04:30:46.674Z,35.50
2018-03-15T04:31:46.706Z,36.40
2018-03-15T04:32:46.738Z,33.80
2018-03-15T04:33:46.766Z,36.00
2018-03-15T04:34:46.790Z,38.30
2018-03-15T04:35:46.829Z,36.40
2018-03-15T04:36:46.850Z,37.60
2018-03-15T04:37:46.881Z,35.80
2018-03-15T04:38:46.908Z,37.80
2018-03-15T04:39:46.938Z,37.40
2018-03-15T04:40:46.969Z,38.30
2018-03-15T04:41:46.996Z,37.30
2018-03-15T04:42:47.044Z,37.70
2018-03-15T04:43:47.056Z,36.30
2018-03-15T04:44:47.088Z,38.40
2018-03-15T04:45:47.120Z,42.70
2018-03-15T04:46:47.147Z,39.70
2018-03-15T04:47:47.171Z,40.20
2018-03-15T04:48:47.202Z,39.00
2018-03-15T04:49:47.230Z,38.10
2018-03-15T04:50:47.261Z,39.30
2018-03-15T04:51:47.289Z,37.10
2018-03-15T04:52:47.323Z,40.40
2018-03-15T04:53:47.348Z,37.30
2018-03-15T04:54:47.378Z,36.20
2018-03-15T04:55:47.412Z,37.90
2018-03-15T04:56:47.442Z,40.60
2018-03-15T04:57:47.469Z,41.00
2018-03-15T04:58:47.493Z,42.20
2018-03-15T04:59:47.533Z,42.00
2018-03-15T05:00:47.553Z,42.80
2018-03-15T05:01:47.583Z,39.40
2018-03-15T05:02:47.611Z,40.90
2018-03-15T05:03:47.639Z,36.50
2018-03-15T05:04:47.668Z,36.00
2018-03-15T05:05:47.707Z,36.70
2018-03-15T05:06:47.729Z,38.10
2018-03-15T05:07:47.758Z,37.70
2018-03-15T05:08:47.797Z,39.70
2018-03-15T05:09:47.821Z,41.40
2018-03-15T05:10:47.844Z,39.30
2018-03-15T05:11:47.872Z,48.50
2018-03-15T05:12:47.902Z,46.40
2018-03-15T05:13:47.929Z,44.80
2018-03-15T05:14:47.960Z,45.80
2018-03-15T05:15:48.006Z,45.60
2018-03-15T05:16:48.038Z,48.60
2018-03-15T05:17:48.050Z,46.20
2018-03-15T05:18:48.081Z,52.90
2018-03-15T05:19:48.106Z,45.60
2018-03-15T05:20:48.134Z,46.00
2018-03-15T05:21:48.162Z,42.90
2018-03-15T05:22:48.193Z,45.60
2018-03-15T05:23:48.220Z,44.50
2018-03-15T05:24:48.252Z,44.00
2018-03-15T05:25:48.286Z,42.50
2018-03-15T05:26:48.326Z,46.90
2018-03-15T05:27:48.348Z,45.00
2018-03-15T05:28:48.371Z,47.40
2018-03-15T05:29:48.396Z,44.60
2018-03-15T05:30:48.427Z,48.50
2018-03-15T05:31:48.453Z,50.10
2018-03-15T05:32:48.485Z,51.10
2018-03-15T05:33:48.514Z,54.50
2018-03-15T05:34:48.544Z,51.50
2018-03-15T05:35:48.669Z,49.90
2018-03-15T05:36:48.601Z,51.40
2018-03-15T05:37:48.634Z,49.20
2018-03-15T05:38:48.665Z,42.60
2018-03-15T05:39:48.688Z,46.80
2018-03-15T05:40:48.717Z,43.90
2018-03-15T05:41:48.745Z,43.40
2018-03-15T05:42:48.776Z,44.30
2018-03-15T05:43:48.806Z,47.20
2018-03-15T05:44:48.846Z,48.60
2018-03-15T05:45:48.864Z,50.60
2018-03-15T05:46:48.894Z,47.20
2018-03-15T05:47:48.923Z,49.30
2018-03-15T05:48:48.954Z,48.80
2018-03-15T05:49:48.984Z,48.70
2018-03-15T05:50:49.011Z,51.50
2018-03-15T05:51:49.046Z,50.10
2018-03-15T05:52:49.129Z,51.70
2018-03-15T05:53:49.093Z,50.90
2018-03-15T05:54:49.127Z,51.10
2018-03-15T05:55:49.152Z,54.00
2018-03-15T05:56:49.183Z,52.90
2018-03-15T05:57:49.214Z,48.50
2018-03-15T05:58:49.245Z,48.70
2018-03-15T05:59:49.270Z,50.70
2018-03-15T06:00:49.299Z,55.60
2018-03-15T06:01:49.326Z,55.00
2018-03-15T06:02:49.357Z,55.20
2018-03-15T06:03:49.433Z,51.80
2018-03-15T06:04:49.415Z,57.00
2018-03-15T06:05:49.453Z,54.90
2018-03-15T06:06:49.477Z,48.70
2018-03-15T06:07:49.505Z,51.20
2018-03-15T06:08:49.536Z,52.20
2018-03-15T06:09:49.569Z,54.50
2018-03-15T06:10:49.591Z,49.10
2018-03-15T06:11:49.631Z,50.40
2018-03-15T06:12:49.648Z,48.60
2018-03-15T06:13:49.682Z,50.50
2018-03-15T06:14:49.710Z,52.00
2018-03-15T06:15:49.738Z,48.00
2018-03-15T06:16:49.767Z,46.70
2018-03-15T06:17:49.797Z,49.60
2018-03-15T06:18:49.829Z,50.50
2018-03-15T06:19:49.855Z,48.80
2018-03-15T06:20:49.883Z,48.10
2018-03-15T06:21:49.917Z,47.20
2018-03-15T06:22:49.942Z,45.40
2018-03-15T06:23:49.970Z,49.80
2018-03-15T06:24:49.999Z,49.70
2018-03-15T06:25:50.031Z,49.90
2018-03-15T06:26:50.057Z,51.60
2018-03-15T06:27:50.089Z,49.70
2018-03-15T06:28:50.248Z,47.50
2018-03-15T06:29:50.148Z,45.50
2018-03-15T06:30:50.189Z,48.50
2018-03-15T06:31:50.208Z,48.00
2018-03-15T06:32:50.235Z,50.00
2018-03-15T06:33:50.263Z,48.20
2018-03-15T06:34:50.293Z,47.40
2018-03-15T06:35:50.335Z,45.60
2018-03-15T06:36:50.350Z,45.40
2018-03-15T06:37:50.381Z,47.00
2018-03-15T06:38:50.412Z,47.70
2018-03-15T06:39:50.439Z,45.20
2018-03-15T06:40:50.470Z,46.20
2018-03-15T06:41:50.498Z,46.80
2018-03-15T06:42:50.529Z,48.30
2018-03-15T06:43:50.558Z,48.20
2018-03-15T06:44:50.589Z,47.30
2018-03-15T06:45:50.673Z,44.10
2018-03-15T06:46:50.649Z,46.00
2018-03-15T06:47:50.682Z,45.40
2018-03-15T06:48:50.706Z,46.70
2018-03-15T06:49:50.736Z,45.40
2018-03-15T06:50:50.770Z,45.40
2018-03-15T06:51:50.800Z,45.70
2018-03-15T06:52:50.837Z,44.80
2018-03-15T06:53:50.858Z,42.20
2018-03-15T06:54:50.885Z,43.70
2018-03-15T06:55:50.922Z,45.20
2018-03-15T06:56:50.945Z,44.20
2018-03-15T06:57:50.976Z,42.90
2018-03-15T06:58:51.008Z,42.70
2018-03-15T06:59:51.033Z,43.40
2018-03-15T07:00:51.064Z,43.20
2018-03-15T07:01:51.095Z,42.00
2018-03-15T07:02:51.123Z,45.10
2018-03-15T07:03:51.203Z,43.90
2018-03-15T07:04:51.268Z,45.60
2018-03-15T07:05:51.217Z,42.70
2018-03-15T07:06:51.245Z,44.40
2018-03-15T07:07:51.271Z,44.50
2018-03-15T07:08:51.304Z,40.10
2018-03-15T07:09:51.332Z,43.40
2018-03-15T07:10:51.364Z,41.50
2018-03-15T07:11:51.399Z,45.50
2018-03-15T07:12:51.422Z,43.10
2018-03-15T07:13:51.453Z,42.30
2018-03-15T07:14:51.502Z,39.60
2018-03-15T07:15:51.512Z,43.40
2018-03-15T07:16:51.548Z,39.90
2018-03-15T07:17:51.573Z,41.90
2018-03-15T07:18:51.603Z,41.00
2018-03-15T07:19:51.634Z,41.10
2018-03-15T07:20:51.663Z,40.80
2018-03-15T07:21:51.723Z,46.20
2018-03-15T07:22:51.741Z,49.70
2018-03-15T07:23:51.755Z,52.40
2018-03-15T07:24:51.783Z,55.90
2018-03-15T07:25:51.815Z,59.00
2018-03-15T07:26:51.846Z,53.30
2018-03-15T07:27:51.883Z,45.60
2018-03-15T07:28:51.913Z,45.20
2018-03-15T07:29:51.937Z,43.00
2018-03-15T07:30:51.967Z,41.30
2018-03-15T07:31:51.995Z,43.70
2018-03-15T07:32:52.024Z,39.80
2018-03-15T07:33:52.054Z,40.60
2018-03-15T07:34:52.087Z,39.70
2018-03-15T07:35:52.116Z,39.70
2018-03-15T07:36:52.153Z,39.90
2018-03-15T07:37:52.179Z,40.20
2018-03-15T07:38:52.208Z,40.80
2018-03-15T07:39:52.243Z,36.70
2018-03-15T07:40:52.269Z,35.40
2018-03-15T07:41:52.298Z,38.30
2018-03-15T07:42:52.330Z,38.70
2018-03-15T07:43:52.365Z,39.40
2018-03-15T07:44:52.393Z,35.60
2018-03-15T07:45:52.502Z,38.10
2018-03-15T07:46:52.448Z,36.90
2018-03-15T07:47:52.484Z,36.80
2018-03-15T07:48:52.508Z,37.90
2018-03-15T07:49:52.541Z,40.70
2018-03-15T07:50:52.607Z,41.50
2018-03-15T07:51:52.600Z,39.40
2018-03-15T07:52:52.640Z,39.00
2018-03-15T07:53:52.661Z,32.70
2018-03-15T07:54:52.691Z,33.50
2018-03-15T07:55:52.722Z,32.90
2018-03-15T07:56:52.766Z,31.70
2018-03-15T07:57:52.803Z,31.90
2018-03-15T07:58:52.826Z,34.80
2018-03-15T07:59:52.847Z,34.50
2018-03-15T08:00:52.877Z,32.80
2018-03-15T08:01:52.907Z,28.50
2018-03-15T08:02:52.937Z,25.00
2018-03-15T08:03:52.964Z,26.80
2018-03-15T08:04:53.067Z,31.00
2018-03-15T08:05:53.026Z,31.30
2018-03-15T08:06:53.059Z,30.70
2018-03-15T08:07:53.088Z,29.90
2018-03-15T08:08:53.119Z,38.50
2018-03-15T08:09:53.149Z,33.50
2018-03-15T08:10:53.181Z,31.90
2018-03-15T08:11:53.214Z,32.50
2018-03-15T08:12:53.244Z,33.90
2018-03-15T08:13:53.274Z,38.00
2018-03-15T08:14:53.304Z,27.80
2018-03-15T08:15:53.335Z,31.60
2018-03-15T08:16:53.366Z,26.40
2018-03-15T08:17:53.398Z,26.20
2018-03-15T08:18:53.429Z,25.30
2018-03-15T08:19:53.460Z,26.90
2018-03-15T08:20:53.491Z,23.70
2018-03-15T08:21:53.535Z,22.90
2018-03-15T08:22:53.550Z,22.80
2018-03-15T08:23:53.587Z,23.00
2018-03-15T08:24:53.611Z,25.40
2018-03-15T08:25:53.647Z,22.80
2018-03-15T08:26:53.676Z,22.80
2018-03-15T08:27:53.720Z,23.10
2018-03-15T08:28:53.793Z,23.10
2018-03-15T08:29:53.771Z,24.10
2018-03-15T08:30:53.800Z,25.20
2018-03-15T08:31:53.828Z,22.70
2018-03-15T08:32:53.860Z,24.20
2018-03-15T08:33:53.895Z,24.60
2018-03-15T08:34:53.927Z,21.80
2018-03-15T08:35:53.976Z,23.50
2018-03-15T08:36:53.984Z,24.60
2018-03-15T08:37:54.014Z,23.10
2018-03-15T08:38:54.077Z,24.70
2018-03-15T08:39:54.077Z,23.90
2018-03-15T08:40:54.107Z,24.40
2018-03-15T08:41:54.144Z,23.10
2018-03-15T08:42:54.172Z,21.90
2018-03-15T08:43:54.198Z,24.10
2018-03-15T08:44:54.232Z,24.10
2018-03-15T08:45:54.269Z,22.10
2018-03-15T08:46:54.298Z,23.70
2018-03-15T08:47:54.326Z,23.50
2018-03-15T08:48:54.355Z,23.90
2018-03-15T08:49:54.388Z,21.90
2018-03-15T08:50:54.420Z,20.40
2018-03-15T08:51:54.447Z,23.30
2018-03-15T08:52:54.483Z,21.70
2018-03-15T08:53:54.513Z,21.30
2018-03-15T08:54:54.544Z,21.70
2018-03-15T08:55:54.574Z,25.50
2018-03-15T08:56:54.731Z,22.70
2018-03-15T08:57:54.648Z,21.00
2018-03-15T08:58:54.679Z,20.50
2018-03-15T08:59:54.699Z,21.80
2018-03-15T09:00:54.733Z,20.90
2018-03-15T09:01:54.768Z,22.50
2018-03-15T09:02:54.795Z,22.80
2018-03-15T09:03:54.826Z,20.90
2018-03-15T09:04:55.059Z,22.60
2018-03-15T09:05:54.902Z,19.60
2018-03-15T09:06:55.138Z,19.10
2018-03-15T09:07:54.951Z,19.50
2018-03-15T09:08:54.982Z,20.00
2018-03-15T09:09:55.016Z,21.40
2018-03-15T09:10:55.045Z,19.20
2018-03-15T09:11:55.174Z,20.70
2018-03-15T09:12:55.108Z,22.20
2018-03-15T09:13:55.141Z,21.60
2018-03-15T09:14:55.170Z,19.50
2018-03-15T09:15:55.200Z,20.20
2018-03-15T09:16:55.235Z,21.40
2018-03-15T09:17:55.266Z,20.40
2018-03-15T09:18:55.298Z,20.10
2018-03-15T09:19:55.328Z,21.50
2018-03-15T09:20:55.357Z,19.70
2018-03-15T09:21:55.411Z,19.90
2018-03-15T09:22:55.423Z,21.60
2018-03-15T09:23:55.456Z,20.20
2018-03-15T09:24:55.487Z,18.90
2018-03-15T09:25:55.518Z,19.30
2018-03-15T09:26:55.549Z,18.10
2018-03-15T09:27:55.581Z,17.50
2018-03-15T09:28:55.620Z,19.70
2018-03-15T09:29:55.647Z,19.40
2018-03-15T09:30:55.677Z,18.60
2018-03-15T09:31:55.708Z,18.20
2018-03-15T09:32:55.742Z,17.30
2018-03-15T09:33:55.773Z,17.90
2018-03-15T09:34:55.831Z,18.20
2018-03-15T09:35:55.984Z,17.50
2018-03-15T09:36:55.868Z,17.90
2018-03-15T09:37:55.901Z,18.10
2018-03-15T09:38:55.931Z,17.50
2018-03-15T09:39:55.963Z,17.70
2018-03-15T09:40:56.006Z,17.30
2018-03-15T09:41:56.028Z,16.70
2018-03-15T09:42:56.063Z,17.20
2018-03-15T09:43:56.097Z,19.00
2018-03-15T09:44:56.121Z,16.50
2018-03-15T09:45:56.162Z,17.80
2018-03-15T09:46:56.204Z,17.00
2018-03-15T09:47:56.269Z,19.10
2018-03-15T09:48:56.249Z,18.30
2018-03-15T09:49:56.280Z,18.40
2018-03-15T09:50:56.315Z,17.90
2018-03-15T09:51:56.344Z,17.30
2018-03-15T09:52:56.380Z,17.10
2018-03-15T09:53:56.410Z,17.80
2018-03-15T09:54:56.466Z,18.20
2018-03-15T09:55:56.474Z,17.80
2018-03-15T09:56:56.506Z,17.50
2018-03-15T09:57:56.538Z,17.60
2018-03-15T09:58:56.570Z,17.90
2018-03-15T09:59:56.603Z,17.80
2018-03-15T10:00:56.635Z,18.80
2018-03-15T10:01:56.665Z,18.80
2018-03-15T10:02:56.701Z,16.90
2018-03-15T10:03:56.732Z,20.50
2018-03-15T10:04:56.764Z,19.00
2018-03-15T10:05:56.794Z,18.80
2018-03-15T10:06:56.830Z,17.40
2018-03-15T10:07:56.861Z,17.60
2018-03-15T10:08:56.892Z,17.90
2018-03-15T10:09:56.938Z,17.90
2018-03-15T10:10:56.959Z,19.40
2018-03-15T10:11:56.992Z,17.60
2018-03-15T10:12:57.020Z,18.80
2018-03-15T10:13:57.055Z,19.40
2018-03-15T10:14:57.086Z,17.80
2018-03-15T10:15:57.118Z,18.90
2018-03-15T10:16:57.153Z,16.80
2018-03-15T10:17:57.188Z,20.80
2018-03-15T10:18:57.374Z,17.70
2018-03-15T10:19:57.245Z,18.50
2018-03-15T10:20:57.282Z,17.10
2018-03-15T10:21:57.318Z,18.20
2018-03-15T10:22:57.345Z,19.40
2018-03-15T10:23:57.378Z,18.00
2018-03-15T10:24:57.413Z,18.80
2018-03-15T10:25:57.441Z,18.70
2018-03-15T10:26:57.473Z,18.20
2018-03-15T10:27:57.505Z,19.40
2018-03-15T10:28:57.537Z,19.20
2018-03-15T10:29:57.602Z,17.60
2018-03-15T10:30:57.656Z,19.60
2018-03-15T10:31:57.636Z,19.70
2018-03-15T10:32:57.668Z,19.60
2018-03-15T10:33:57.720Z,33.90
2018-03-15T10:34:57.733Z,24.50
2018-03-15T10:35:57.766Z,19.50
2018-03-15T10:36:57.799Z,18.10
2018-03-15T10:37:57.846Z,19.30
2018-03-15T10:38:57.868Z,18.50
2018-03-15T10:39:57.896Z,17.80
2018-03-15T10:40:57.941Z,16.80
2018-03-15T10:41:57.966Z,18.20
2018-03-15T10:42:58.007Z,17.80
2018-03-15T10:43:58.025Z,19.50
2018-03-15T10:44:58.060Z,16.60
2018-03-15T10:45:58.095Z,17.20
2018-03-15T10:46:58.126Z,18.20
2018-03-15T10:47:58.192Z,17.80
2018-03-15T10:48:58.192Z,17.30
2018-03-15T10:49:58.225Z,17.50
2018-03-15T10:50:58.259Z,17.00
2018-03-15T10:51:58.291Z,16.10
2018-03-15T10:52:58.328Z,16.70
2018-03-15T10:53:58.358Z,16.90
2018-03-15T10:54:58.440Z,15.60
2018-03-15T10:55:58.419Z,15.50
2018-03-15T10:56:58.451Z,16.30
2018-03-15T10:57:58.530Z,15.20
2018-03-15T10:58:58.519Z,15.70
2018-03-15T10:59:58.619Z,16.60
2018-03-15T11:00:58.582Z,16.30
2018-03-15T11:01:58.671Z,15.10
2018-03-15T11:02:58.652Z,15.40
2018-03-15T11:03:58.682Z,14.90
2018-03-15T11:04:58.739Z,15.00
2018-03-15T11:05:58.747Z,14.80
2018-03-15T11:06:58.782Z,14.40
2018-03-15T11:07:58.818Z,14.20
2018-03-15T11:08:58.950Z,14.10
2018-03-15T11:09:58.880Z,14.80
2018-03-15T11:10:58.917Z,14.20
2018-03-15T11:11:58.948Z,14.70
2018-03-15T11:12:58.981Z,15.60
2018-03-15T11:13:59.013Z,14.90
2018-03-15T11:14:59.065Z,16.10
2018-03-15T11:15:59.081Z,15.50
2018-03-15T11:16:59.121Z,13.10
2018-03-15T11:17:59.149Z,15.80
2018-03-15T11:18:59.179Z,14.50
2018-03-15T11:19:59.216Z,14.10
2018-03-15T11:20:59.244Z,14.00
2018-03-15T11:21:59.297Z,14.20
2018-03-15T11:22:59.311Z,15.00
2018-03-15T11:23:59.441Z,13.20
2018-03-15T11:24:59.380Z,13.10
2018-03-15T11:25:59.412Z,15.00
2018-03-15T11:26:59.445Z,13.10
2018-03-15T11:27:59.501Z,13.40
2018-03-15T11:28:59.514Z,14.50
2018-03-15T11:29:59.556Z,12.40
2018-03-15T11:30:59.581Z,13.90
2018-03-15T11:31:59.621Z,13.90
2018-03-15T11:32:59.650Z,13.90
2018-03-15T11:33:59.681Z,13.00
2018-03-15T11:34:59.713Z,13.80
2018-03-15T11:35:59.746Z,13.30
2018-03-15T11:36:59.784Z,12.40
2018-03-15T11:37:59.813Z,13.00
2018-03-15T11:38:59.850Z,12.60
2018-03-15T11:39:59.880Z,11.80
2018-03-15T11:40:59.910Z,15.60
2018-03-15T11:41:59.947Z,15.20
2018-03-15T11:42:59.981Z,14.20
2018-03-15T11:44:00.013Z,13.70
2018-03-15T11:45:00.107Z,14.30
2018-03-15T11:46:00.082Z,13.00
2018-03-15T11:47:00.117Z,12.60
2018-03-15T11:48:00.152Z,12.50
2018-03-15T11:49:00.183Z,13.00
2018-03-15T11:50:00.215Z,13.10
2018-03-15T11:51:00.257Z,12.30
2018-03-15T11:52:00.303Z,13.70
2018-03-15T11:53:00.318Z,13.40
2018-03-15T11:54:00.352Z,14.70
2018-03-15T11:55:00.384Z,12.10
2018-03-15T11:56:00.423Z,14.30
2018-03-15T11:57:00.452Z,12.90
2018-03-15T11:58:00.488Z,13.60
2018-03-15T11:59:00.524Z,12.50
2018-03-15T12:00:00.553Z,12.20
2018-03-15T12:01:00.595Z,13.10
2018-03-15T12:02:00.623Z,12.20
2018-03-15T12:03:00.666Z,12.20
2018-03-15T12:04:00.693Z,12.80
2018-03-15T12:05:00.727Z,12.70
2018-03-15T12:06:00.759Z,11.60
2018-03-15T12:07:00.794Z,11.80
2018-03-15T12:08:00.827Z,11.60
2018-03-15T12:09:00.865Z,11.50
2018-03-15T12:10:00.898Z,12.40
2018-03-15T12:11:00.935Z,12.50
2018-03-15T12:12:00.964Z,12.70
2018-03-15T12:13:01.005Z,12.00
2018-03-15T12:14:01.032Z,11.60
2018-03-15T12:15:01.069Z,9.80
2018-03-15T12:16:01.104Z,10.70
2018-03-15T12:17:01.147Z,12.10
2018-03-15T12:18:01.289Z,12.80
2018-03-15T12:19:01.209Z,12.80
2018-03-15T12:20:01.242Z,13.30
2018-03-15T12:21:01.275Z,12.60
2018-03-15T12:22:01.311Z,13.50
2018-03-15T12:23:01.347Z,12.30
2018-03-15T12:24:01.384Z,13.10
2018-03-15T12:25:01.417Z,12.30
2018-03-15T12:26:01.448Z,12.30
2018-03-15T12:27:01.483Z,12.70
2018-03-15T12:28:01.517Z,14.30
2018-03-15T12:29:01.551Z,15.00
2018-03-15T12:30:01.587Z,14.80
2018-03-15T12:31:01.621Z,14.20
2018-03-15T12:32:01.662Z,11.70
2018-03-15T12:33:01.894Z,13.40
2018-03-15T12:34:01.738Z,12.60
2018-03-15T12:35:01.770Z,14.70
2018-03-15T12:36:01.792Z,15.60
2018-03-15T12:37:01.828Z,14.90
2018-03-15T12:38:01.863Z,14.70
2018-03-15T12:39:01.900Z,12.40
2018-03-15T12:40:01.932Z,13.40
2018-03-15T12:41:01.970Z,14.50
2018-03-15T12:42:02.005Z,13.20
2018-03-15T12:43:02.038Z,13.10
2018-03-15T12:44:02.072Z,13.80
2018-03-15T12:45:02.104Z,13.80
2018-03-15T12:46:02.142Z,14.90
2018-03-15T12:47:02.173Z,15.90
2018-03-15T12:48:02.209Z,15.70
2018-03-15T12:49:02.260Z,13.60
2018-03-15T12:50:02.288Z,14.50
2018-03-15T12:51:02.311Z,13.10
2018-03-15T12:52:02.348Z,15.30
2018-03-15T12:53:02.380Z,13.60